createdAt,value
2019-05-22T00:01:44.521Z,12.70
2019-05-22T00:04:23.520Z,12.80
2019-05-22T00:06:54.435Z,12.80
2019-05-22T00:09:24.477Z,12.80
2019-05-22T00:11:56.734Z,12.80
2019-05-22T00:14:27.414Z,12.90
2019-05-22T00:16:56.462Z,12.90
2019-05-22T00:19:25.010Z,12.80
2019-05-22T00:21:55.335Z,12.80
2019-05-22T00:24:25.255Z,12.80
2019-05-22T00:26:55.537Z,12.80
2019-05-22T00:29:25.075Z,12.80
2019-05-22T00:31:54.713Z,12.90
2019-05-22T00:34:23.989Z,12.80
2019-05-22T00:36:53.035Z,12.80
2019-05-22T00:39:22.017Z,12.80
2019-05-22T00:41:51.694Z,12.80
2019-05-22T00:44:21.158Z,12.80
2019-05-22T00:46:52.053Z,12.80
2019-05-22T00:49:22.227Z,12.80
2019-05-22T00:52:04.823Z,12.70
2019-05-22T00:54:40.573Z,12.80
2019-05-22T00:57:16.840Z,12.80
2019-05-22T00:59:49.854Z,12.70
2019-05-22T01:02:28.532Z,12.80
2019-05-22T01:04:58.075Z,12.70
2019-05-22T01:07:31.803Z,12.70
2019-05-22T01:10:02.518Z,12.60
2019-05-22T01:12:37.799Z,12.60
2019-05-22T01:15:10.857Z,12.70
2019-05-22T01:17:41.082Z,12.70
2019-05-22T01:20:12.821Z,12.70
2019-05-22T01:22:42.308Z,12.80
2019-05-22T01:25:13.894Z,12.80
2019-05-22T01:27:43.075Z,12.70
2019-05-22T01:30:23.203Z,12.70
2019-05-22T01:32:54.323Z,12.70
2019-05-22T01:35:42.049Z,12.70
2019-05-22T01:38:12.596Z,12.70
2019-05-22T01:40:53.899Z,12.60
2019-05-22T01:43:24.579Z,12.70
2019-05-22T01:45:55.062Z,12.50
2019-05-22T01:48:27.281Z,12.60
2019-05-22T01:50:58.686Z,12.60
2019-05-22T01:53:31.593Z,12.60
2019-05-22T01:56:01.971Z,12.60
2019-05-22T01:58:31.527Z,12.50
2019-05-22T02:01:02.044Z,12.40
2019-05-22T02:03:31.755Z,12.50
2019-05-22T02:06:01.271Z,12.40
2019-05-22T02:08:32.104Z,12.50
2019-05-22T02:11:01.527Z,12.50
2019-05-22T02:13:40.220Z,12.50
2019-05-22T02:16:08.963Z,12.60
2019-05-22T02:18:40.283Z,12.60
2019-05-22T02:21:10.602Z,12.70
2019-05-22T02:23:40.712Z,12.50
2019-05-22T02:26:10.763Z,12.50
2019-05-22T02:28:40.323Z,12.40
2019-05-22T02:31:11.048Z,12.30
2019-05-22T02:33:41.096Z,12.40
2019-05-22T02:36:10.184Z,12.40
2019-05-22T02:38:39.952Z,12.50
2019-05-22T02:41:09.279Z,12.50
2019-05-22T02:43:37.692Z,12.40
2019-05-22T02:46:07.754Z,12.50
2019-05-22T02:48:37.114Z,12.60
2019-05-22T02:51:05.528Z,12.50
2019-05-22T02:53:33.962Z,12.40
2019-05-22T02:56:02.876Z,12.50
2019-05-22T02:58:31.343Z,12.50
2019-05-22T03:01:02.609Z,12.40
2019-05-22T03:03:32.059Z,12.40
2019-05-22T03:06:02.266Z,12.40
2019-05-22T03:08:34.455Z,12.30
2019-05-22T03:11:03.889Z,12.40
2019-05-22T03:13:55.015Z,12.30
2019-05-22T03:16:23.492Z,12.20
2019-05-22T03:19:08.168Z,12.20
2019-05-22T03:21:25.099Z,12.10
2019-05-22T03:23:54.197Z,12.00
2019-05-22T03:26:24.518Z,12.10
2019-05-22T03:28:53.262Z,12.10
2019-05-22T03:31:22.180Z,12.10
2019-05-22T03:33:50.759Z,12.20
2019-05-22T03:36:20.921Z,12.10
2019-05-22T03:38:50.549Z,12.10
2019-05-22T03:41:19.475Z,12.00
2019-05-22T03:43:50.803Z,12.00
2019-05-22T03:46:35.831Z,12.10
2019-05-22T03:49:05.296Z,12.10
2019-05-22T03:51:34.895Z,12.10
2019-05-22T03:54:03.581Z,12.10
2019-05-22T03:56:32.515Z,12.20
2019-05-22T03:59:02.271Z,12.20
2019-05-22T04:01:32.325Z,12.10
2019-05-22T04:04:02.818Z,12.20
2019-05-22T04:06:32.949Z,12.20
2019-05-22T04:09:06.068Z,12.20
2019-05-22T04:11:38.729Z,12.20
2019-05-22T04:14:07.480Z,12.20
2019-05-22T04:16:35.896Z,12.20
2019-05-22T04:19:05.048Z,12.20
2019-05-22T04:21:33.594Z,12.20
2019-05-22T04:24:03.096Z,12.20
2019-05-22T04:26:33.227Z,12.20
2019-05-22T04:29:01.800Z,12.20
2019-05-22T04:31:49.862Z,12.20
2019-05-22T04:34:20.651Z,12.10
2019-05-22T04:36:50.839Z,12.10
2019-05-22T04:39:26.340Z,12.10
2019-05-22T04:41:56.251Z,12.10
2019-05-22T04:44:26.275Z,12.20
2019-05-22T04:46:55.427Z,12.00
2019-05-22T04:49:24.549Z,12.00
2019-05-22T04:51:53.093Z,12.10
2019-05-22T04:54:21.511Z,12.20
2019-05-22T04:56:51.334Z,12.20
2019-05-22T04:59:20.302Z,12.20
2019-05-22T05:01:50.654Z,12.20
2019-05-22T05:04:19.142Z,12.00
2019-05-22T05:06:47.792Z,12.10
2019-05-22T05:09:16.685Z,12.00
2019-05-22T05:11:45.164Z,12.00
2019-05-22T05:14:13.706Z,12.00
2019-05-22T05:16:43.197Z,12.00
2019-05-22T05:19:11.786Z,11.60
2019-05-22T05:21:40.556Z,11.80
2019-05-22T05:24:09.114Z,11.90
2019-05-22T05:26:39.158Z,11.80
2019-05-22T05:29:10.077Z,11.50
2019-05-22T05:31:40.127Z,11.70
2019-05-22T05:34:14.295Z,11.80
2019-05-22T05:36:44.679Z,11.90
2019-05-22T05:39:36.832Z,11.80
2019-05-22T05:42:05.816Z,11.60
2019-05-22T05:44:35.036Z,11.70
2019-05-22T05:47:04.691Z,11.60
2019-05-22T05:49:33.192Z,11.70
2019-05-22T05:52:03.616Z,11.70
2019-05-22T05:54:32.103Z,11.60
2019-05-22T05:57:32.970Z,11.70
2019-05-22T06:00:04.923Z,11.60
2019-05-22T06:02:33.820Z,11.80
2019-05-22T06:05:03.688Z,11.90
2019-05-22T06:07:32.235Z,12.00
2019-05-22T06:10:25.236Z,12.10
2019-05-22T06:12:53.819Z,12.20
2019-05-22T06:15:45.813Z,12.40
2019-05-22T06:18:12.530Z,12.40
2019-05-22T06:20:41.459Z,12.50
2019-05-22T06:23:32.204Z,12.50
2019-05-22T06:26:02.352Z,12.60
2019-05-22T06:28:37.837Z,12.60
2019-05-22T06:31:09.046Z,12.70
2019-05-22T06:33:38.730Z,12.80
2019-05-22T06:36:11.479Z,12.90
2019-05-22T06:38:49.738Z,12.90
2019-05-22T06:41:20.036Z,12.90
2019-05-22T06:44:09.619Z,13.00
2019-05-22T06:46:46.221Z,13.10
2019-05-22T06:49:35.968Z,13.10
2019-05-22T06:52:06.311Z,13.10
2019-05-22T06:54:35.086Z,13.00
2019-05-22T06:57:05.854Z,13.20
2019-05-22T06:59:34.343Z,13.30
2019-05-22T07:02:04.397Z,13.50
2019-05-22T07:04:33.116Z,13.50
2019-05-22T07:07:03.595Z,13.50
2019-05-22T07:09:32.829Z,13.50
2019-05-22T07:12:01.379Z,13.50
2019-05-22T07:14:31.495Z,13.50
2019-05-22T07:16:59.899Z,13.50
2019-05-22T07:19:29.078Z,13.50
2019-05-22T07:21:58.611Z,13.50
2019-05-22T07:24:27.656Z,13.60
2019-05-22T07:26:59.294Z,13.60
2019-05-22T07:29:27.843Z,13.50
2019-05-22T07:32:02.209Z,13.50
2019-05-22T07:34:30.495Z,13.40
2019-05-22T07:36:59.140Z,13.30
2019-05-22T07:39:27.816Z,13.20
2019-05-22T07:41:56.297Z,13.40
2019-05-22T07:44:24.738Z,13.40
2019-05-22T07:46:54.599Z,13.60
2019-05-22T07:49:23.267Z,13.50
2019-05-22T07:51:58.850Z,13.20
2019-05-22T07:54:22.047Z,13.30
2019-05-22T07:56:51.262Z,13.40
2019-05-22T07:59:19.941Z,13.10
2019-05-22T08:01:48.470Z,13.30
2019-05-22T08:04:18.579Z,13.30
2019-05-22T08:06:47.138Z,13.10
2019-05-22T08:09:18.081Z,13.20
2019-05-22T08:11:47.275Z,13.30
2019-05-22T08:14:17.220Z,13.40
2019-05-22T08:16:46.130Z,13.50
2019-05-22T08:19:14.679Z,13.70
2019-05-22T08:21:43.155Z,13.70
2019-05-22T08:24:11.873Z,13.80
2019-05-22T08:26:53.802Z,13.70
2019-05-22T08:29:11.208Z,13.70
2019-05-22T08:31:40.944Z,13.80
2019-05-22T08:34:09.884Z,13.90
2019-05-22T08:36:39.352Z,14.10
2019-05-22T08:39:09.867Z,14.20
2019-05-22T08:41:41.349Z,14.30
2019-05-22T08:44:16.848Z,14.50
2019-05-22T08:46:40.132Z,14.60
2019-05-22T08:49:08.709Z,14.60
2019-05-22T08:51:37.279Z,14.70
2019-05-22T08:54:06.426Z,14.70
2019-05-22T08:56:39.120Z,14.80
2019-05-22T08:59:18.871Z,14.80
2019-05-22T09:01:38.930Z,14.90
2019-05-22T09:04:07.939Z,15.00
2019-05-22T09:06:36.568Z,14.90
2019-05-22T09:09:06.619Z,14.90
2019-05-22T09:11:35.116Z,14.90
2019-05-22T09:14:03.960Z,14.70
2019-05-22T09:16:32.367Z,14.90
2019-05-22T09:19:01.374Z,14.80
2019-05-22T09:21:29.784Z,14.90
2019-05-22T09:24:00.667Z,14.70
2019-05-22T09:26:29.544Z,14.50
2019-05-22T09:28:58.515Z,14.70
2019-05-22T09:31:27.000Z,14.70
2019-05-22T09:33:55.403Z,15.10
2019-05-22T09:36:24.183Z,15.00
2019-05-22T09:38:52.956Z,14.90
2019-05-22T09:41:21.787Z,15.20
2019-05-22T09:43:50.206Z,15.30
2019-05-22T09:46:19.171Z,15.50
2019-05-22T09:48:48.011Z,15.30
2019-05-22T09:51:16.526Z,15.20
2019-05-22T09:53:45.307Z,15.30
2019-05-22T09:56:13.950Z,15.20
2019-05-22T09:58:42.363Z,15.40
2019-05-22T10:01:12.113Z,16.00
2019-05-22T10:03:40.735Z,16.40
2019-05-22T10:06:09.331Z,16.70
2019-05-22T10:08:38.083Z,16.40
2019-05-22T10:11:06.613Z,16.40
2019-05-22T10:13:35.606Z,16.40
2019-05-22T10:16:04.558Z,16.60
2019-05-22T10:18:33.343Z,17.50
2019-05-22T10:21:02.128Z,18.00
2019-05-22T10:23:31.829Z,19.20
2019-05-22T10:26:00.648Z,18.80
2019-05-22T10:28:29.523Z,18.10
2019-05-22T10:30:59.003Z,17.70
2019-05-22T10:33:28.268Z,18.10
2019-05-22T10:40:53.226Z,23.10
2019-05-22T10:43:21.781Z,21.00
2019-05-22T10:45:50.253Z,21.90
2019-05-22T10:48:18.749Z,21.10
2019-05-22T10:50:47.247Z,21.70
2019-05-22T10:53:32.473Z,20.20
2019-05-22T10:55:46.560Z,19.90
2019-05-22T10:58:15.502Z,24.80
2019-05-22T11:00:44.397Z,23.30
2019-05-22T11:03:14.755Z,22.20
2019-05-22T11:05:43.979Z,22.10
2019-05-22T11:08:12.790Z,21.00
2019-05-22T11:10:45.022Z,21.60
2019-05-22T11:13:12.358Z,24.30
2019-05-22T11:15:40.759Z,24.10
2019-05-22T11:18:09.972Z,22.20
2019-05-22T11:20:38.436Z,21.00
2019-05-22T11:23:07.053Z,20.10
2019-05-22T11:25:35.576Z,19.40
2019-05-22T11:28:04.191Z,20.20
2019-05-22T11:30:33.443Z,22.10
2019-05-22T11:33:02.120Z,23.50
2019-05-22T11:35:33.069Z,23.00
2019-05-22T11:38:01.539Z,23.90
2019-05-22T11:40:30.007Z,22.20
2019-05-22T11:42:59.255Z,21.30
2019-05-22T11:45:27.794Z,22.90
2019-05-22T11:47:56.268Z,22.20
2019-05-22T11:50:25.303Z,22.10
2019-05-22T11:52:53.703Z,22.60
2019-05-22T11:55:22.126Z,23.20
2019-05-22T11:57:51.546Z,23.80
2019-05-22T12:00:21.266Z,24.00
2019-05-22T12:02:51.446Z,24.00
2019-05-22T12:05:20.656Z,23.60
2019-05-22T12:07:50.066Z,23.00
2019-05-22T12:10:21.052Z,22.10
2019-05-22T12:12:51.282Z,22.30
2019-05-22T12:15:23.763Z,21.90
2019-05-22T12:17:52.521Z,22.30
2019-05-22T12:20:22.028Z,21.70
2019-05-22T12:22:51.175Z,22.70
2019-05-22T12:25:19.939Z,22.10
2019-05-22T12:27:48.683Z,22.70
2019-05-22T12:30:18.636Z,22.80
2019-05-22T12:32:47.841Z,23.40
2019-05-22T12:35:16.700Z,24.10
2019-05-22T12:37:45.747Z,23.10
2019-05-22T12:40:19.128Z,21.70
2019-05-22T12:42:48.646Z,21.10
2019-05-22T12:45:18.865Z,21.50
2019-05-22T12:47:47.704Z,21.80
2019-05-22T12:50:19.683Z,22.00
2019-05-22T12:52:49.603Z,21.50
2019-05-22T12:55:20.438Z,21.10
2019-05-22T12:57:49.484Z,20.50
2019-05-22T13:00:21.539Z,20.50
2019-05-22T13:02:50.296Z,20.20
2019-05-22T13:05:18.923Z,20.00
2019-05-22T13:07:47.860Z,20.50
2019-05-22T13:10:17.496Z,21.10
2019-05-22T13:12:46.231Z,22.10
2019-05-22T13:15:15.296Z,22.50
2019-05-22T13:17:43.694Z,22.30
2019-05-22T13:20:13.703Z,23.00
2019-05-22T13:22:47.666Z,22.80
2019-05-22T13:25:18.963Z,22.90
2019-05-22T13:27:48.720Z,21.90
2019-05-22T13:30:19.599Z,21.40
2019-05-22T13:32:49.221Z,21.40
2019-05-22T13:35:19.059Z,21.50
2019-05-22T13:37:47.900Z,20.80
2019-05-22T13:40:27.508Z,21.00
2019-05-22T13:42:49.159Z,20.70
2019-05-22T13:45:28.480Z,20.60
2019-05-22T13:47:48.571Z,20.30
2019-05-22T13:50:18.672Z,20.20
2019-05-22T13:52:47.476Z,19.80
2019-05-22T13:55:17.492Z,19.70
2019-05-22T13:57:47.502Z,19.90
2019-05-22T14:00:18.803Z,20.30
2019-05-22T14:02:47.745Z,20.40
2019-05-22T14:05:17.680Z,20.40
2019-05-22T14:07:46.527Z,20.00
2019-05-22T14:10:16.883Z,19.80
2019-05-22T14:12:45.363Z,19.50
2019-05-22T14:15:15.098Z,19.70
2019-05-22T14:17:43.594Z,19.80
2019-05-22T14:20:14.707Z,20.10
2019-05-22T14:22:43.180Z,20.40
2019-05-22T14:25:12.240Z,20.20
2019-05-22T14:27:43.663Z,20.10
2019-05-22T14:30:13.309Z,20.10
2019-05-22T14:32:41.975Z,20.00
2019-05-22T14:35:11.927Z,20.20
2019-05-22T14:37:41.264Z,20.70
2019-05-22T14:40:11.610Z,21.00
2019-05-22T14:42:40.191Z,21.00
2019-05-22T14:45:09.538Z,21.30
2019-05-22T14:47:38.298Z,21.10
2019-05-22T14:50:08.511Z,21.10
2019-05-22T14:52:37.160Z,21.40
2019-05-22T14:55:07.389Z,21.50
2019-05-22T14:57:36.846Z,21.20
2019-05-22T15:00:11.816Z,20.80
2019-05-22T15:02:40.494Z,20.40
2019-05-22T15:05:10.900Z,20.20
2019-05-22T15:07:40.140Z,20.00
2019-05-22T15:10:10.375Z,19.90
2019-05-22T15:12:39.024Z,20.30
2019-05-22T15:15:09.507Z,20.60
2019-05-22T15:17:38.379Z,21.10
2019-05-22T15:20:09.948Z,21.00
2019-05-22T15:22:38.901Z,21.10
2019-05-22T15:25:10.691Z,20.70
2019-05-22T15:27:39.340Z,20.60
2019-05-22T15:30:09.091Z,20.90
2019-05-22T15:32:37.572Z,21.10
2019-05-22T15:35:06.574Z,20.50
2019-05-22T15:37:36.120Z,20.70
2019-05-22T15:40:06.730Z,20.30
2019-05-22T15:42:45.803Z,19.90
2019-05-22T15:45:20.870Z,19.70
2019-05-22T15:47:55.256Z,19.60
2019-05-22T15:50:28.885Z,19.60
2019-05-22T15:53:02.491Z,19.70
2019-05-22T15:55:31.486Z,19.90
2019-05-22T15:58:01.596Z,19.80
2019-05-22T16:00:34.583Z,20.00
2019-05-22T16:03:12.370Z,19.90
2019-05-22T16:05:42.195Z,20.00
2019-05-22T16:08:11.138Z,20.00
2019-05-22T16:10:41.257Z,19.60
2019-05-22T16:13:12.542Z,19.50
2019-05-22T16:15:44.051Z,19.30
2019-05-22T16:18:13.666Z,19.20
2019-05-22T16:20:43.092Z,19.20
2019-05-22T16:23:11.668Z,19.40
2019-05-22T16:25:41.139Z,19.70
2019-05-22T16:28:10.463Z,19.70
2019-05-22T16:30:39.983Z,20.00
2019-05-22T16:33:10.092Z,20.10
2019-05-22T16:35:38.820Z,20.10
2019-05-22T16:38:07.751Z,20.00
2019-05-22T16:40:37.363Z,20.00
2019-05-22T16:43:05.915Z,20.00
2019-05-22T16:45:35.853Z,19.90
2019-05-22T16:48:07.095Z,19.60
2019-05-22T16:50:37.407Z,19.50
2019-05-22T16:53:08.792Z,19.50
2019-05-22T16:55:39.512Z,19.60
2019-05-22T16:58:08.255Z,19.30
2019-05-22T17:00:37.608Z,19.00
2019-05-22T17:03:06.988Z,18.80
2019-05-22T17:05:35.700Z,18.70
2019-05-22T17:08:05.000Z,18.70
2019-05-22T17:10:33.640Z,18.70
2019-05-22T17:13:03.850Z,18.80
2019-05-22T17:15:34.961Z,18.80
2019-05-22T17:18:04.352Z,18.80
2019-05-22T17:20:33.923Z,18.60
2019-05-22T17:23:02.975Z,18.50
2019-05-22T17:25:32.882Z,18.40
2019-05-22T17:28:02.318Z,18.30
2019-05-22T17:30:32.207Z,18.10
2019-05-22T17:33:00.875Z,18.00
2019-05-22T17:35:30.595Z,17.90
2019-05-22T17:37:59.300Z,17.80
2019-05-22T17:40:28.112Z,17.80
2019-05-22T17:42:57.199Z,17.90
2019-05-22T17:45:28.695Z,18.00
2019-05-22T17:47:57.607Z,18.00
2019-05-22T17:50:27.852Z,17.90
2019-05-22T17:52:57.095Z,18.00
2019-05-22T17:55:26.712Z,17.90
2019-05-22T17:57:55.459Z,17.90
2019-05-22T18:00:31.943Z,17.90
2019-05-22T18:03:01.779Z,17.90
2019-05-22T18:05:30.797Z,17.80
2019-05-22T18:07:59.475Z,17.70
2019-05-22T18:10:29.681Z,17.70
2019-05-22T18:20:24.308Z,17.40
2019-05-22T18:22:52.951Z,17.40
2019-05-22T18:25:21.705Z,17.30
2019-05-22T18:27:51.077Z,17.30
2019-05-22T18:30:20.446Z,17.20
2019-05-22T18:32:49.097Z,17.00
2019-05-22T18:35:17.640Z,17.00
2019-05-22T18:37:46.637Z,16.90
2019-05-22T18:40:16.038Z,16.60
2019-05-22T18:42:44.776Z,16.50
2019-05-22T18:45:13.703Z,16.40
2019-05-22T18:47:42.574Z,16.40
2019-05-22T18:50:12.546Z,16.30
2019-05-22T18:52:46.660Z,16.10
2019-05-22T18:55:15.793Z,16.00
2019-05-22T18:57:44.363Z,15.90
2019-05-22T19:00:13.655Z,15.90
2019-05-22T19:02:42.121Z,15.60
2019-05-22T19:05:10.703Z,15.60
2019-05-22T19:07:39.111Z,15.40
2019-05-22T19:10:08.128Z,15.30
2019-05-22T19:12:36.598Z,15.30
2019-05-22T19:15:09.047Z,15.10
2019-05-22T19:17:37.446Z,15.10
2019-05-22T19:20:07.221Z,14.90
2019-05-22T19:22:36.040Z,14.80
2019-05-22T19:25:05.089Z,14.70
2019-05-22T19:30:10.515Z,14.70
2019-05-22T19:32:39.301Z,14.60
2019-05-22T19:35:09.810Z,14.40
2019-05-22T19:37:38.482Z,14.30
2019-05-22T19:40:08.323Z,14.20
2019-05-22T19:42:37.099Z,14.10
2019-05-22T19:45:10.897Z,13.90
2019-05-22T19:47:42.961Z,13.80
2019-05-22T19:50:22.951Z,13.80
2019-05-22T19:52:43.295Z,13.80
2019-05-22T19:55:14.044Z,13.70
2019-05-22T19:57:43.339Z,13.60
2019-05-22T20:00:12.487Z,13.50
2019-05-22T20:02:42.108Z,13.50
2019-05-22T20:05:11.718Z,13.50
2019-05-22T20:07:40.989Z,13.40
2019-05-22T20:10:11.283Z,13.30
2019-05-22T20:12:41.027Z,13.40
2019-05-22T20:15:10.180Z,13.20
2019-05-22T20:17:38.643Z,13.30
2019-05-22T20:20:10.190Z,13.30
2019-05-22T20:22:40.059Z,13.30
2019-05-22T20:25:09.987Z,13.20
2019-05-22T20:27:39.610Z,13.20
2019-05-22T20:30:10.226Z,13.20
2019-05-22T20:32:39.631Z,13.10
2019-05-22T20:35:08.856Z,13.00
2019-05-22T20:37:37.329Z,13.10
2019-05-22T20:40:07.457Z,13.20
2019-05-22T20:42:37.012Z,13.20
2019-05-22T20:45:07.134Z,13.10
2019-05-22T20:47:39.341Z,13.10
2019-05-22T20:50:11.215Z,13.00
2019-05-22T20:52:40.165Z,13.00
2019-05-22T20:55:09.485Z,12.90
2019-05-22T20:57:38.059Z,12.90
2019-05-22T21:00:09.837Z,12.80
2019-05-22T21:02:40.156Z,12.70
2019-05-22T21:05:10.931Z,12.60
2019-05-22T21:07:43.082Z,12.50
2019-05-22T21:10:12.303Z,12.60
2019-05-22T21:12:40.956Z,12.50
2019-05-22T21:15:09.972Z,12.30
2019-05-22T21:17:40.019Z,12.40
2019-05-22T21:20:12.134Z,12.40
2019-05-22T21:22:41.814Z,12.40
2019-05-22T21:25:12.101Z,12.30
2019-05-22T21:27:42.426Z,12.20
2019-05-22T21:30:13.979Z,12.20
2019-05-22T21:32:43.598Z,12.10
2019-05-22T21:35:12.904Z,12.10
2019-05-22T21:37:41.381Z,12.10
2019-05-22T21:40:11.100Z,12.00
2019-05-22T21:42:41.742Z,12.10
2019-05-22T21:45:11.110Z,12.20
2019-05-22T21:47:41.493Z,12.00
2019-05-22T21:50:11.407Z,11.90
2019-05-22T21:52:40.081Z,11.90
2019-05-22T21:55:11.170Z,11.90
2019-05-22T21:57:40.293Z,11.90
2019-05-22T22:00:12.851Z,11.80
2019-05-22T22:02:45.215Z,11.80
2019-05-22T22:05:14.858Z,11.80
2019-05-22T22:07:44.587Z,11.90
2019-05-22T22:10:15.963Z,12.00
2019-05-22T22:12:45.559Z,11.90
2019-05-22T22:15:15.002Z,12.00
2019-05-22T22:17:44.205Z,11.90
2019-05-22T22:20:12.758Z,11.90
2019-05-22T22:22:42.013Z,11.90
2019-05-22T22:25:11.308Z,11.80
2019-05-22T22:27:39.794Z,11.80
2019-05-22T22:30:35.075Z,11.80
2019-05-22T22:33:08.212Z,11.70
2019-05-22T22:35:37.354Z,11.70
2019-05-22T22:38:07.103Z,11.70
2019-05-22T22:40:36.031Z,11.70
2019-05-22T22:43:05.548Z,11.70
2019-05-22T22:45:37.100Z,11.70
2019-05-22T22:48:06.036Z,11.60
2019-05-22T22:50:36.003Z,11.50
2019-05-22T22:53:06.147Z,11.40
2019-05-22T22:55:36.517Z,11.30
2019-05-22T22:58:16.616Z,11.30
2019-05-22T23:00:44.767Z,11.30
2019-05-22T23:03:16.716Z,11.40
2019-05-22T23:05:47.016Z,11.30
2019-05-22T23:08:18.771Z,11.30
2019-05-22T23:10:48.702Z,11.30
2019-05-22T23:13:17.551Z,11.30
2019-05-22T23:15:49.038Z,11.30
2019-05-22T23:18:37.082Z,11.40
2019-05-22T23:21:04.701Z,11.30
2019-05-22T23:23:32.015Z,11.30
2019-05-22T23:26:00.455Z,11.30
2019-05-22T23:28:34.522Z,11.30
2019-05-22T23:31:00.805Z,11.30
2019-05-22T23:33:31.015Z,11.30
2019-05-22T23:38:27.830Z,11.00
2019-05-22T23:40:57.258Z,11.00
2019-05-22T23:43:27.807Z,11.00
2019-05-22T23:45:56.926Z,11.00
2019-05-22T23:48:27.267Z,10.90
2019-05-22T23:50:56.231Z,10.80
2019-05-22T23:53:24.974Z,10.90
2019-05-22T23:55:54.015Z,10.90
2019-05-22T23:58:22.978Z,10.80
